createdAt,value
2018-02-19T00:00:22.868Z,0.00
2018-02-19T00:01:22.862Z,0.00
2018-02-19T00:02:22.856Z,0.00
2018-02-19T00:03:23.705Z,0.00
2018-02-19T00:04:22.839Z,0.00
2018-02-19T00:05:22.832Z,0.00
2018-02-19T00:06:22.828Z,0.00
2018-02-19T00:07:22.823Z,0.00
2018-02-19T00:08:22.863Z,0.00
2018-02-19T00:09:22.805Z,0.00
2018-02-19T00:10:22.795Z,0.00
2018-02-19T00:11:22.789Z,0.00
2018-02-19T00:12:22.782Z,0.00
2018-02-19T00:13:22.777Z,0.00
2018-02-19T00:14:22.813Z,0.00
2018-02-19T00:15:22.762Z,0.00
2018-02-19T00:16:22.754Z,0.00
2018-02-19T00:17:22.746Z,0.00
2018-02-19T00:18:22.802Z,0.00
2018-02-19T00:19:22.730Z,0.00
2018-02-19T00:20:22.725Z,0.00
2018-02-19T00:21:22.721Z,0.00
2018-02-19T00:22:22.713Z,0.00
2018-02-19T00:23:22.746Z,0.00
2018-02-19T00:24:22.701Z,0.00
2018-02-19T00:25:22.699Z,0.00
2018-02-19T00:26:22.688Z,0.00
2018-02-19T00:27:22.678Z,0.00
2018-02-19T00:28:22.726Z,0.00
2018-02-19T00:29:22.665Z,0.00
2018-02-19T00:30:22.657Z,0.00
2018-02-19T00:31:22.645Z,0.00
2018-02-19T00:32:22.640Z,0.00
2018-02-19T00:33:22.675Z,0.00
2018-02-19T00:34:22.664Z,0.00
2018-02-19T00:35:22.618Z,0.00
2018-02-19T00:36:22.611Z,0.00
2018-02-19T00:37:22.603Z,0.00
2018-02-19T00:38:22.597Z,0.00
2018-02-19T00:39:22.626Z,0.00
2018-02-19T00:40:22.581Z,0.00
2018-02-19T00:41:22.574Z,0.00
2018-02-19T00:42:22.569Z,0.00
2018-02-19T00:43:22.597Z,0.00
2018-02-19T00:44:22.556Z,0.00
2018-02-19T00:45:22.547Z,0.00
2018-02-19T00:46:22.862Z,0.00
2018-02-19T00:47:22.532Z,0.00
2018-02-19T00:48:22.564Z,0.00
2018-02-19T00:49:22.522Z,0.00
2018-02-19T00:50:22.511Z,0.00
2018-02-19T00:51:22.502Z,0.00
2018-02-19T00:52:22.509Z,0.00
2018-02-19T00:53:22.533Z,0.00
2018-02-19T00:54:22.481Z,0.00
2018-02-19T00:55:22.477Z,0.00
2018-02-19T00:56:22.471Z,0.00
2018-02-19T00:57:22.461Z,0.00
2018-02-19T00:58:22.497Z,0.00
2018-02-19T00:59:22.443Z,0.00
2018-02-19T01:00:22.438Z,0.00
2018-02-19T01:01:22.435Z,0.00
2018-02-19T01:02:22.465Z,0.00
2018-02-19T01:03:22.415Z,0.00
2018-02-19T01:04:22.412Z,0.00
2018-02-19T01:05:22.398Z,0.00
2018-02-19T01:06:22.394Z,0.00
2018-02-19T01:07:22.443Z,0.00
2018-02-19T01:08:22.379Z,0.00
2018-02-19T01:09:22.413Z,0.00
2018-02-19T01:10:22.364Z,0.00
2018-02-19T01:11:22.359Z,0.00
2018-02-19T01:12:22.387Z,0.00
2018-02-19T01:13:22.341Z,0.00
2018-02-19T01:14:22.332Z,0.00
2018-02-19T01:15:22.326Z,0.00
2018-02-19T01:16:22.316Z,0.00
2018-02-19T01:17:22.355Z,0.00
2018-02-19T01:18:22.303Z,0.00
2018-02-19T01:19:22.300Z,0.00
2018-02-19T01:20:22.754Z,0.00
2018-02-19T01:21:22.287Z,0.00
2018-02-19T01:22:22.318Z,0.00
2018-02-19T01:23:22.268Z,0.00
2018-02-19T01:24:22.769Z,0.00
2018-02-19T01:25:22.253Z,0.00
2018-02-19T01:26:22.245Z,0.00
2018-02-19T01:27:22.281Z,0.00
2018-02-19T01:28:22.231Z,0.00
2018-02-19T01:29:22.222Z,0.00
2018-02-19T01:30:22.222Z,0.00
2018-02-19T01:31:22.205Z,0.00
2018-02-19T01:32:22.257Z,0.00
2018-02-19T01:33:22.194Z,0.00
2018-02-19T01:34:22.227Z,0.00
2018-02-19T01:35:22.178Z,0.00
2018-02-19T01:36:22.172Z,0.00
2018-02-19T01:37:22.167Z,0.00
2018-02-19T01:38:22.212Z,0.00
2018-02-19T01:39:22.146Z,0.00
2018-02-19T01:40:22.140Z,0.00
2018-02-19T01:41:22.134Z,0.00
2018-02-19T01:42:22.126Z,0.00
2018-02-19T01:43:22.156Z,0.00
2018-02-19T01:44:22.114Z,0.00
2018-02-19T01:45:22.102Z,0.00
2018-02-19T01:46:22.098Z,0.00
2018-02-19T01:47:22.087Z,0.00
2018-02-19T01:48:22.083Z,0.00
2018-02-19T01:49:22.113Z,0.00
2018-02-19T01:50:22.065Z,0.00
2018-02-19T01:51:22.056Z,0.00
2018-02-19T01:52:22.050Z,0.00
2018-02-19T01:53:22.042Z,0.00
2018-02-19T01:54:22.081Z,0.00
2018-02-19T01:55:22.032Z,0.00
2018-02-19T01:56:22.020Z,0.00
2018-02-19T01:57:22.012Z,0.00
2018-02-19T01:58:22.006Z,0.00
2018-02-19T01:59:22.055Z,0.00
2018-02-19T02:00:22.676Z,0.00
2018-02-19T02:01:21.986Z,0.00
2018-02-19T02:02:21.979Z,0.00
2018-02-19T02:03:22.011Z,0.00
2018-02-19T02:04:22.004Z,0.00
2018-02-19T02:05:21.955Z,0.00
2018-02-19T02:06:21.949Z,0.00
2018-02-19T02:07:21.939Z,0.00
2018-02-19T02:08:21.936Z,0.00
2018-02-19T02:09:21.962Z,0.00
2018-02-19T02:10:21.919Z,0.00
2018-02-19T02:11:21.907Z,0.00
2018-02-19T02:12:21.901Z,0.00
2018-02-19T02:13:21.900Z,0.00
2018-02-19T02:14:21.932Z,0.00
2018-02-19T02:15:21.879Z,0.00
2018-02-19T02:16:21.872Z,0.00
2018-02-19T02:17:21.864Z,0.00
2018-02-19T02:18:21.858Z,0.00
2018-02-19T02:19:21.906Z,0.00
2018-02-19T02:20:21.844Z,0.00
2018-02-19T02:21:21.833Z,0.00
2018-02-19T02:22:21.827Z,0.00
2018-02-19T02:23:21.821Z,0.00
2018-02-19T02:24:21.849Z,0.00
2018-02-19T02:25:21.841Z,0.00
2018-02-19T02:26:21.803Z,0.00
2018-02-19T02:27:21.792Z,0.00
2018-02-19T02:28:21.784Z,0.00
2018-02-19T02:29:21.775Z,0.00
2018-02-19T02:30:21.806Z,0.00
2018-02-19T02:31:21.764Z,0.00
2018-02-19T02:32:21.756Z,0.00
2018-02-19T02:33:21.748Z,0.00
2018-02-19T02:34:21.799Z,0.00
2018-02-19T02:35:21.731Z,0.00
2018-02-19T02:36:21.722Z,0.00
2018-02-19T02:37:21.719Z,0.00
2018-02-19T02:38:21.746Z,0.00
2018-02-19T02:39:21.700Z,0.00
2018-02-19T02:40:22.534Z,0.00
2018-02-19T02:41:21.687Z,0.00
2018-02-19T02:42:21.681Z,0.00
2018-02-19T02:43:21.673Z,0.00
2018-02-19T02:44:21.709Z,0.00
2018-02-19T02:45:21.657Z,0.00
2018-02-19T02:46:21.656Z,0.00
2018-02-19T02:47:21.641Z,0.00
2018-02-19T02:48:21.636Z,0.00
2018-02-19T02:49:21.648Z,0.00
2018-02-19T02:50:21.600Z,0.00
2018-02-19T02:51:21.592Z,0.00
2018-02-19T02:52:21.583Z,0.00
2018-02-19T02:53:21.579Z,0.00
2018-02-19T02:54:21.607Z,0.00
2018-02-19T02:55:21.562Z,0.00
2018-02-19T02:56:21.557Z,0.00
2018-02-19T02:57:21.551Z,0.00
2018-02-19T02:58:21.540Z,0.00
2018-02-19T02:59:21.573Z,0.00
2018-02-19T03:00:21.533Z,0.00
2018-02-19T03:01:21.517Z,0.00
2018-02-19T03:02:21.511Z,0.00
2018-02-19T03:03:21.504Z,0.00
2018-02-19T03:04:21.538Z,0.00
2018-02-19T03:05:21.489Z,0.00
2018-02-19T03:06:21.480Z,0.00
2018-02-19T03:07:21.473Z,0.00
2018-02-19T03:08:21.466Z,0.00
2018-02-19T03:09:21.494Z,0.00
2018-02-19T03:10:21.451Z,0.00
2018-02-19T03:11:21.445Z,0.00
2018-02-19T03:12:21.436Z,0.00
2018-02-19T03:13:21.429Z,0.00
2018-02-19T03:14:21.458Z,0.00
2018-02-19T03:15:21.411Z,0.00
2018-02-19T03:16:21.402Z,0.00
2018-02-19T03:17:21.397Z,0.00
2018-02-19T03:18:21.395Z,0.00
2018-02-19T03:19:21.420Z,0.00
2018-02-19T03:20:21.576Z,0.00
2018-02-19T03:21:21.369Z,0.00
2018-02-19T03:22:21.359Z,0.00
2018-02-19T03:23:21.407Z,0.00
2018-02-19T03:24:21.383Z,0.00
2018-02-19T03:25:21.337Z,0.00
2018-02-19T03:26:21.328Z,0.00
2018-02-19T03:27:21.368Z,0.00
2018-02-19T03:28:21.314Z,0.00
2018-02-19T03:29:21.349Z,0.00
2018-02-19T03:30:21.302Z,0.00
2018-02-19T03:31:21.287Z,0.00
2018-02-19T03:32:21.281Z,0.00
2018-02-19T03:33:21.277Z,0.00
2018-02-19T03:34:21.305Z,0.00
2018-02-19T03:35:21.259Z,0.00
2018-02-19T03:36:21.253Z,0.00
2018-02-19T03:37:21.244Z,0.00
2018-02-19T03:38:21.236Z,0.00
2018-02-19T03:39:21.289Z,0.00
2018-02-19T03:40:21.221Z,0.00
2018-02-19T03:41:21.212Z,0.00
2018-02-19T03:42:21.204Z,0.00
2018-02-19T03:43:21.195Z,0.00
2018-02-19T03:44:21.190Z,0.00
2018-02-19T03:45:21.221Z,0.00
2018-02-19T03:46:21.172Z,0.00
2018-02-19T03:47:21.162Z,0.00
2018-02-19T03:48:21.152Z,0.00
2018-02-19T03:49:21.146Z,0.00
2018-02-19T03:50:21.186Z,0.00
2018-02-19T03:51:21.132Z,0.00
2018-02-19T03:52:21.123Z,0.00
2018-02-19T03:53:21.115Z,0.00
2018-02-19T03:54:21.112Z,0.00
2018-02-19T03:55:21.136Z,0.00
2018-02-19T03:56:21.089Z,0.00
2018-02-19T03:57:21.084Z,0.00
2018-02-19T03:58:21.078Z,0.00
2018-02-19T03:59:21.063Z,0.00
2018-02-19T04:00:21.109Z,0.00
2018-02-19T04:01:21.049Z,0.00
2018-02-19T04:02:21.041Z,0.00
2018-02-19T04:03:21.034Z,0.00
2018-02-19T04:04:21.027Z,0.00
2018-02-19T04:05:21.016Z,0.00
2018-02-19T04:06:21.051Z,0.00
2018-02-19T04:07:21.005Z,0.00
2018-02-19T04:08:20.996Z,0.00
2018-02-19T04:09:20.992Z,0.00
2018-02-19T04:10:20.977Z,0.00
2018-02-19T04:11:21.027Z,0.00
2018-02-19T04:12:20.960Z,0.00
2018-02-19T04:13:20.953Z,0.00
2018-02-19T04:14:20.985Z,0.00
2018-02-19T04:15:20.935Z,0.00
2018-02-19T04:16:20.930Z,0.00
2018-02-19T04:17:20.976Z,0.00
2018-02-19T04:18:20.913Z,0.00
2018-02-19T04:19:20.945Z,0.00
2018-02-19T04:20:20.973Z,0.00
2018-02-19T04:21:20.889Z,0.00
2018-02-19T04:22:21.353Z,0.00
2018-02-19T04:23:20.874Z,0.00
2018-02-19T04:24:20.864Z,0.00
2018-02-19T04:25:20.858Z,0.00
2018-02-19T04:26:20.894Z,0.00
2018-02-19T04:27:20.842Z,0.00
2018-02-19T04:28:20.835Z,0.00
2018-02-19T04:29:20.826Z,0.00
2018-02-19T04:30:20.819Z,0.00
2018-02-19T04:31:20.856Z,0.00
2018-02-19T04:32:20.802Z,0.00
2018-02-19T04:33:20.796Z,0.00
2018-02-19T04:34:20.787Z,0.00
2018-02-19T04:35:20.778Z,0.00
2018-02-19T04:36:20.770Z,0.00
2018-02-19T04:37:20.800Z,0.00
2018-02-19T04:38:20.756Z,0.00
2018-02-19T04:39:20.749Z,0.00
2018-02-19T04:40:20.743Z,0.00
2018-02-19T04:41:20.730Z,0.00
2018-02-19T04:42:20.765Z,0.00
2018-02-19T04:43:20.720Z,0.00
2018-02-19T04:44:20.712Z,0.00
2018-02-19T04:45:20.702Z,0.00
2018-02-19T04:46:20.693Z,0.00
2018-02-19T04:47:20.737Z,0.00
2018-02-19T04:48:20.677Z,0.00
2018-02-19T04:49:20.727Z,0.00
2018-02-19T04:50:20.663Z,0.00
2018-02-19T04:51:20.657Z,0.00
2018-02-19T04:52:21.650Z,0.00
2018-02-19T04:53:21.142Z,0.00
2018-02-19T04:54:20.672Z,0.00
2018-02-19T04:55:20.635Z,0.00
2018-02-19T04:56:20.615Z,0.00
2018-02-19T04:57:20.606Z,0.00
2018-02-19T04:58:20.657Z,0.00
2018-02-19T04:59:20.629Z,0.00
2018-02-19T05:00:20.585Z,0.00
2018-02-19T05:01:20.575Z,0.00
2018-02-19T05:02:20.571Z,0.00
2018-02-19T05:03:20.604Z,0.00
2018-02-19T05:04:20.553Z,0.00
2018-02-19T05:05:20.542Z,0.00
2018-02-19T05:06:20.543Z,0.00
2018-02-19T05:07:20.529Z,0.00
2018-02-19T05:08:20.580Z,0.00
2018-02-19T05:09:20.512Z,0.00
2018-02-19T05:10:20.505Z,0.00
2018-02-19T05:11:20.500Z,0.00
2018-02-19T05:12:20.492Z,0.00
2018-02-19T05:13:20.520Z,0.00
2018-02-19T05:14:20.522Z,0.00
2018-02-19T05:15:20.468Z,0.00
2018-02-19T05:16:20.456Z,0.00
2018-02-19T05:17:20.452Z,0.00
2018-02-19T05:18:20.442Z,0.00
2018-02-19T05:19:20.478Z,0.00
2018-02-19T05:20:20.426Z,0.00
2018-02-19T05:21:20.418Z,0.00
2018-02-19T05:22:20.415Z,0.00
2018-02-19T05:23:20.404Z,0.00
2018-02-19T05:24:20.447Z,0.00
2018-02-19T05:25:20.389Z,0.00
2018-02-19T05:26:20.381Z,0.00
2018-02-19T05:27:20.372Z,0.00
2018-02-19T05:28:20.741Z,0.00
2018-02-19T05:29:20.397Z,0.00
2018-02-19T05:30:20.350Z,0.00
2018-02-19T05:31:20.381Z,0.00
2018-02-19T05:32:20.332Z,0.00
2018-02-19T05:33:20.363Z,0.00
2018-02-19T05:34:20.318Z,0.00
2018-02-19T05:35:20.306Z,0.00
2018-02-19T05:36:20.302Z,0.00
2018-02-19T05:37:20.293Z,0.00
2018-02-19T05:38:20.342Z,0.00
2018-02-19T05:39:20.276Z,0.00
2018-02-19T05:40:20.269Z,0.00
2018-02-19T05:41:20.264Z,0.00
2018-02-19T05:42:20.252Z,4.00
2018-02-19T05:43:20.288Z,4.00
2018-02-19T05:44:20.238Z,0.00
2018-02-19T05:45:20.233Z,4.00
2018-02-19T05:46:20.224Z,4.00
2018-02-19T05:47:20.216Z,4.00
2018-02-19T05:48:20.263Z,4.00
2018-02-19T05:49:20.199Z,4.00
2018-02-19T05:50:20.189Z,4.00
2018-02-19T05:51:20.181Z,8.00
2018-02-19T05:52:20.173Z,8.00
2018-02-19T05:53:20.202Z,12.00
2018-02-19T05:54:20.156Z,12.00
2018-02-19T05:55:20.151Z,20.00
2018-02-19T05:56:20.147Z,20.00
2018-02-19T05:57:20.135Z,24.00
2018-02-19T05:58:20.164Z,28.00
2018-02-19T05:59:20.713Z,36.00
2018-02-19T06:00:20.109Z,44.00
2018-02-19T06:01:20.101Z,52.00
2018-02-19T06:02:20.096Z,60.00
2018-02-19T06:03:20.121Z,72.00
2018-02-19T06:04:20.077Z,80.00
2018-02-19T06:05:20.077Z,92.00
2018-02-19T06:06:20.060Z,108.00
2018-02-19T06:07:20.107Z,128.00
2018-02-19T06:08:20.042Z,144.00
2018-02-19T06:09:20.040Z,168.00
2018-02-19T06:10:20.035Z,188.00
2018-02-19T06:11:20.021Z,212.00
2018-02-19T06:12:20.014Z,232.00
2018-02-19T06:13:20.045Z,260.00
2018-02-19T06:14:19.995Z,284.00
2018-02-19T06:15:19.989Z,312.00
2018-02-19T06:16:19.983Z,344.00
2018-02-19T06:17:19.973Z,380.00
2018-02-19T06:18:20.007Z,412.00
2018-02-19T06:19:19.954Z,448.00
2018-02-19T06:20:19.947Z,484.00
2018-02-19T06:21:19.938Z,524.00
2018-02-19T06:22:19.932Z,564.00
2018-02-19T06:23:19.981Z,608.00
2018-02-19T06:24:19.916Z,656.00
2018-02-19T06:25:19.908Z,700.00
2018-02-19T06:26:19.899Z,752.00
2018-02-19T06:27:19.891Z,800.00
2018-02-19T06:28:19.919Z,856.00
2018-02-19T06:29:19.874Z,912.00
2018-02-19T06:30:19.868Z,968.00
2018-02-19T06:31:19.858Z,1032.00
2018-02-19T06:32:19.850Z,1096.00
2018-02-19T06:33:19.897Z,1180.00
2018-02-19T06:34:19.839Z,1272.00
2018-02-19T06:35:19.824Z,1368.00
2018-02-19T06:36:19.817Z,1468.00
2018-02-19T06:37:19.848Z,1572.00
2018-02-19T06:38:20.279Z,1688.00
2018-02-19T06:39:19.835Z,1812.00
2018-02-19T06:40:19.785Z,1936.00
2018-02-19T06:41:19.780Z,2060.00
2018-02-19T06:42:19.768Z,2180.00
2018-02-19T06:43:19.790Z,2300.00
2018-02-19T06:44:19.794Z,2416.00
2018-02-19T06:45:19.744Z,2544.00
2018-02-19T06:46:19.734Z,2672.00
2018-02-19T06:47:19.726Z,2804.00
2018-02-19T06:48:19.721Z,2936.00
2018-02-19T06:49:19.752Z,3076.00
2018-02-19T06:50:19.704Z,3204.00
2018-02-19T06:51:19.694Z,3348.00
2018-02-19T06:52:19.693Z,3516.00
2018-02-19T06:53:19.681Z,3712.00
2018-02-19T06:54:19.732Z,3936.00
2018-02-19T06:55:19.665Z,4184.00
2018-02-19T06:56:19.662Z,4484.00
2018-02-19T06:57:19.649Z,4800.00
2018-02-19T06:58:19.682Z,5096.00
2018-02-19T06:59:19.632Z,5368.00
2018-02-19T07:00:19.666Z,5612.00
2018-02-19T07:01:19.616Z,5844.00
2018-02-19T07:02:19.609Z,6076.00
2018-02-19T07:03:19.603Z,6284.00
2018-02-19T07:04:19.594Z,6420.00
2018-02-19T07:05:19.632Z,6504.00
2018-02-19T07:06:19.579Z,6568.00
2018-02-19T07:07:19.574Z,6616.00
2018-02-19T07:08:19.563Z,6664.00
2018-02-19T07:09:19.564Z,6772.00
2018-02-19T07:10:19.551Z,6908.00
2018-02-19T07:11:19.599Z,7044.00
2018-02-19T07:12:19.534Z,7188.00
2018-02-19T07:13:19.573Z,7376.00
2018-02-19T07:14:19.523Z,7592.00
2018-02-19T07:15:19.515Z,7864.00
2018-02-19T07:16:19.547Z,8272.00
2018-02-19T07:17:19.499Z,8668.00
2018-02-19T07:18:19.494Z,8760.00
2018-02-19T07:19:19.489Z,8684.00
2018-02-19T07:20:19.480Z,8512.00
2018-02-19T07:21:19.512Z,8140.00
2018-02-19T07:22:19.468Z,7968.00
2018-02-19T07:23:19.461Z,7940.00
2018-02-19T07:24:19.457Z,8156.00
2018-02-19T07:25:19.451Z,8392.00
2018-02-19T07:26:19.487Z,8740.00
2018-02-19T07:27:19.440Z,9140.00
2018-02-19T07:28:19.436Z,9212.00
2018-02-19T07:29:19.428Z,9148.00
2018-02-19T07:30:19.425Z,9144.00
2018-02-19T07:31:19.458Z,9164.00
2018-02-19T07:32:19.416Z,9856.00
2018-02-19T07:33:19.412Z,9968.00
2018-02-19T07:34:19.407Z,9592.00
2018-02-19T07:35:19.400Z,9636.00
2018-02-19T07:36:19.443Z,9732.00
2018-02-19T07:37:19.394Z,9736.00
2018-02-19T07:38:19.396Z,9880.00
2018-02-19T07:39:19.387Z,10252.00
2018-02-19T07:40:19.383Z,10564.00
2018-02-19T07:41:19.435Z,10700.00
2018-02-19T07:42:19.376Z,10972.00
2018-02-19T07:43:19.414Z,11536.00
2018-02-19T07:44:19.368Z,11740.00
2018-02-19T07:45:19.364Z,11632.00
2018-02-19T07:46:19.361Z,11940.00
2018-02-19T07:47:19.408Z,12108.00
2018-02-19T07:48:19.351Z,12204.00
2018-02-19T07:49:19.346Z,12404.00
2018-02-19T07:50:19.391Z,12844.00
2018-02-19T07:51:19.341Z,13400.00
2018-02-19T07:52:19.395Z,13976.00
2018-02-19T07:53:19.334Z,13856.00
2018-02-19T07:54:19.330Z,13564.00
2018-02-19T07:55:19.327Z,13444.00
2018-02-19T07:56:19.324Z,13588.00
2018-02-19T07:57:19.358Z,13656.00
2018-02-19T07:58:19.362Z,13776.00
2018-02-19T07:59:19.314Z,13768.00
2018-02-19T08:00:19.314Z,13900.00
2018-02-19T08:01:19.311Z,14168.00
2018-02-19T08:02:19.309Z,14364.00
2018-02-19T08:03:19.350Z,14492.00
2018-02-19T08:04:19.298Z,14872.00
2018-02-19T08:05:19.296Z,15136.00
2018-02-19T08:06:19.296Z,15588.00
2018-02-19T08:07:19.293Z,16164.00
2018-02-19T08:08:19.363Z,16380.00
2018-02-19T08:09:19.291Z,16896.00
2018-02-19T08:10:19.288Z,17312.00
2018-02-19T08:11:19.284Z,17472.00
2018-02-19T08:12:19.329Z,17088.00
2018-02-19T08:13:19.319Z,17472.00
2018-02-19T08:14:19.323Z,17568.00
2018-02-19T08:15:19.276Z,17888.00
2018-02-19T08:16:19.277Z,18304.00
2018-02-19T08:17:19.273Z,17984.00
2018-02-19T08:18:19.316Z,18400.00
2018-02-19T08:19:19.268Z,18016.00
2018-02-19T08:20:19.272Z,17376.00
2018-02-19T08:21:19.268Z,17344.00
2018-02-19T08:22:19.269Z,17216.00
2018-02-19T08:23:19.304Z,17216.00
2018-02-19T08:24:19.266Z,17280.00
2018-02-19T08:25:19.266Z,16732.00
2018-02-19T08:26:19.265Z,16568.00
2018-02-19T08:27:19.263Z,16556.00
2018-02-19T08:28:19.303Z,16648.00
2018-02-19T08:29:19.261Z,16788.00
2018-02-19T08:30:19.420Z,16412.00
2018-02-19T08:31:19.260Z,16880.00
2018-02-19T08:32:19.257Z,17440.00
2018-02-19T08:33:19.315Z,17440.00
2018-02-19T08:34:19.261Z,17856.00
2018-02-19T08:35:19.258Z,18144.00
2018-02-19T08:36:19.254Z,18144.00
2018-02-19T08:37:19.255Z,18112.00
2018-02-19T08:38:19.292Z,17408.00
2018-02-19T08:39:19.295Z,16980.00
2018-02-19T08:40:19.251Z,17184.00
2018-02-19T08:41:19.251Z,16968.00
2018-02-19T08:42:19.251Z,17248.00
2018-02-19T08:43:19.247Z,17280.00
2018-02-19T08:44:19.282Z,17504.00
2018-02-19T08:45:19.244Z,17888.00
2018-02-19T08:46:19.246Z,17856.00
2018-02-19T08:47:19.241Z,17568.00
2018-02-19T08:48:19.242Z,17408.00
2018-02-19T08:49:19.283Z,17408.00
2018-02-19T08:50:19.238Z,17060.00
2018-02-19T08:51:19.236Z,17376.00
2018-02-19T08:52:19.233Z,17632.00
2018-02-19T08:53:19.258Z,18336.00
2018-02-19T08:54:19.267Z,18432.00
2018-02-19T08:55:19.226Z,17984.00
2018-02-19T08:56:19.223Z,17952.00
2018-02-19T08:57:19.224Z,18368.00
2018-02-19T08:58:19.280Z,19520.00
2018-02-19T08:59:19.219Z,20320.00
2018-02-19T09:00:19.218Z,20256.00
2018-02-19T09:01:19.220Z,20288.00
2018-02-19T09:02:19.212Z,19904.00
2018-02-19T09:03:19.255Z,20576.00
2018-02-19T09:04:19.207Z,20352.00
2018-02-19T09:05:19.206Z,20704.00
2018-02-19T09:06:19.205Z,21024.00
2018-02-19T09:07:19.201Z,21024.00
2018-02-19T09:08:19.271Z,22016.00
2018-02-19T09:09:19.204Z,21792.00
2018-02-19T09:10:19.198Z,21632.00
2018-02-19T09:11:19.198Z,22016.00
2018-02-19T09:12:19.197Z,23424.00
2018-02-19T09:13:19.197Z,24448.00
2018-02-19T09:14:19.237Z,25632.00
2018-02-19T09:15:19.193Z,25472.00
2018-02-19T09:16:19.194Z,25440.00
2018-02-19T09:17:19.193Z,26592.00
2018-02-19T09:18:19.232Z,26816.00
2018-02-19T09:19:19.192Z,27072.00
2018-02-19T09:20:19.198Z,27008.00
2018-02-19T09:21:19.193Z,27776.00
2018-02-19T09:22:19.194Z,26880.00
2018-02-19T09:23:19.234Z,26272.00
2018-02-19T09:24:19.595Z,27040.00
2018-02-19T09:25:19.197Z,28000.00
2018-02-19T09:26:19.201Z,27584.00
2018-02-19T09:27:19.199Z,26624.00
2018-02-19T09:28:19.278Z,28416.00
2018-02-19T09:29:19.203Z,26912.00
2018-02-19T09:30:19.207Z,25184.00
2018-02-19T09:31:19.209Z,24768.00
2018-02-19T09:32:19.213Z,26144.00
2018-02-19T09:33:19.267Z,25728.00
2018-02-19T09:34:19.222Z,27680.00
2018-02-19T09:35:19.221Z,28544.00
2018-02-19T09:36:19.229Z,29664.00
2018-02-19T09:37:19.229Z,27776.00
2018-02-19T09:38:19.236Z,26592.00
2018-02-19T09:39:19.278Z,26112.00
2018-02-19T09:40:19.246Z,25504.00
2018-02-19T09:41:19.247Z,24768.00
2018-02-19T09:42:19.251Z,24864.00
2018-02-19T09:43:19.253Z,24960.00
2018-02-19T09:44:19.297Z,25088.00
2018-02-19T09:45:19.264Z,25280.00
2018-02-19T09:46:19.270Z,25664.00
2018-02-19T09:47:19.271Z,25600.00
2018-02-19T09:48:19.286Z,26848.00
2018-02-19T09:49:19.321Z,28000.00
2018-02-19T09:50:19.283Z,29792.00
2018-02-19T09:51:19.292Z,33408.00
2018-02-19T09:52:19.291Z,36576.00
2018-02-19T09:53:19.296Z,37632.00
2018-02-19T09:54:19.705Z,41568.00
2018-02-19T09:55:19.304Z,41216.00
2018-02-19T09:56:19.390Z,40480.00
2018-02-19T09:57:19.316Z,35776.00
2018-02-19T09:58:19.319Z,36928.00
2018-02-19T09:59:19.361Z,39680.00
2018-02-19T10:00:19.333Z,37632.00
2018-02-19T10:01:19.337Z,37504.00
2018-02-19T10:02:19.341Z,38080.00
2018-02-19T10:03:19.345Z,39904.00
2018-02-19T10:04:19.394Z,38720.00
2018-02-19T10:05:19.357Z,37696.00
2018-02-19T10:06:19.364Z,39776.00
2018-02-19T10:07:19.365Z,39776.00
2018-02-19T10:08:19.373Z,50816.00
2018-02-19T10:09:19.420Z,57376.00
2018-02-19T10:10:19.748Z,56128.00
2018-02-19T10:11:19.388Z,61728.00
2018-02-19T10:12:19.398Z,60160.00
2018-02-19T10:13:19.406Z,61344.00
2018-02-19T10:14:19.466Z,58432.00
2018-02-19T10:15:20.408Z,55040.00
2018-02-19T10:16:19.427Z,51680.00
2018-02-19T10:17:19.431Z,55456.00
2018-02-19T10:18:19.436Z,55776.00
2018-02-19T10:19:19.501Z,51936.00
2018-02-19T10:20:20.087Z,52288.00
2018-02-19T10:21:19.466Z,48064.00
2018-02-19T10:22:19.469Z,44064.00
2018-02-19T10:23:19.479Z,47680.00
2018-02-19T10:24:19.538Z,48896.00
2018-02-19T10:25:21.031Z,52608.00
2018-02-19T10:26:19.500Z,50720.00
2018-02-19T10:27:19.510Z,47200.00
2018-02-19T10:28:19.514Z,46848.00
2018-02-19T10:29:19.563Z,41600.00
2018-02-19T10:30:19.624Z,39200.00
2018-02-19T10:31:19.540Z,36224.00
2018-02-19T10:32:19.581Z,34368.00
2018-02-19T10:33:19.555Z,33856.00
2018-02-19T10:34:20.525Z,32512.00
2018-02-19T10:35:19.572Z,32416.00
2018-02-19T10:36:19.641Z,29888.00
2018-02-19T10:37:19.588Z,29888.00
2018-02-19T10:38:19.724Z,29952.00
2018-02-19T10:39:20.064Z,30080.00
2018-02-19T10:40:19.635Z,27264.00
2018-02-19T10:41:19.617Z,28224.00
2018-02-19T10:42:19.634Z,35008.00
2018-02-19T10:43:19.676Z,35584.00
2018-02-19T10:44:19.676Z,35296.00
2018-02-19T10:45:19.646Z,35712.00
2018-02-19T10:46:19.651Z,35136.00
2018-02-19T10:47:19.688Z,36032.00
2018-02-19T10:48:19.660Z,37952.00
2018-02-19T10:49:19.804Z,37760.00
2018-02-19T10:50:19.677Z,36800.00
2018-02-19T10:51:19.684Z,35328.00
2018-02-19T10:52:19.688Z,32384.00
2018-02-19T10:53:19.695Z,32320.00
2018-02-19T10:54:19.742Z,32864.00
2018-02-19T10:55:19.709Z,34464.00
2018-02-19T10:56:19.714Z,36064.00
2018-02-19T10:57:19.723Z,35552.00
2018-02-19T10:58:19.727Z,36064.00
2018-02-19T10:59:19.776Z,36672.00
2018-02-19T11:00:19.740Z,37632.00
2018-02-19T11:01:19.749Z,38912.00
2018-02-19T11:02:19.844Z,37056.00
2018-02-19T11:03:19.769Z,34176.00
2018-02-19T11:04:19.872Z,32480.00
2018-02-19T11:05:19.774Z,31712.00
2018-02-19T11:06:19.779Z,31520.00
2018-02-19T11:07:19.787Z,32032.00
2018-02-19T11:08:19.793Z,31232.00
2018-02-19T11:09:19.853Z,30528.00
2018-02-19T11:10:19.805Z,30144.00
2018-02-19T11:11:19.812Z,31136.00
2018-02-19T11:12:19.813Z,32480.00
2018-02-19T11:13:19.865Z,32704.00
2018-02-19T11:14:19.863Z,32384.00
2018-02-19T11:15:19.830Z,32736.00
2018-02-19T11:16:19.830Z,32096.00
2018-02-19T11:17:19.836Z,30848.00
2018-02-19T11:18:19.843Z,30624.00
2018-02-19T11:19:20.610Z,30176.00
2018-02-19T11:20:20.042Z,29952.00
2018-02-19T11:21:19.852Z,29408.00
2018-02-19T11:22:19.860Z,28736.00
2018-02-19T11:23:19.864Z,28864.00
2018-02-19T11:24:19.917Z,28384.00
2018-02-19T11:25:19.911Z,27968.00
2018-02-19T11:26:19.871Z,27328.00
2018-02-19T11:27:19.879Z,26848.00
2018-02-19T11:28:19.878Z,26304.00
2018-02-19T11:29:19.884Z,26560.00
2018-02-19T11:30:19.928Z,28000.00
2018-02-19T11:31:19.887Z,28032.00
2018-02-19T11:32:19.891Z,27648.00
2018-02-19T11:33:19.896Z,25792.00
2018-02-19T11:34:19.895Z,24800.00
2018-02-19T11:35:19.940Z,24064.00
2018-02-19T11:36:19.901Z,23776.00
2018-02-19T11:37:19.908Z,23744.00
2018-02-19T11:38:19.906Z,23360.00
2018-02-19T11:39:19.908Z,22432.00
2018-02-19T11:40:19.967Z,21984.00
2018-02-19T11:41:19.914Z,21792.00
2018-02-19T11:42:19.916Z,21760.00
2018-02-19T11:43:19.916Z,21856.00
2018-02-19T11:44:19.977Z,22048.00
2018-02-19T11:45:19.920Z,22336.00
2018-02-19T11:46:19.925Z,22560.00
2018-02-19T11:47:19.923Z,22592.00
2018-02-19T11:48:19.926Z,22400.00
2018-02-19T11:49:19.982Z,22464.00
2018-02-19T11:50:19.928Z,22784.00
2018-02-19T11:51:19.931Z,23648.00
2018-02-19T11:52:19.933Z,24224.00
2018-02-19T11:53:19.930Z,25184.00
2018-02-19T11:54:19.974Z,25824.00
2018-02-19T11:55:19.935Z,26560.00
2018-02-19T11:56:19.978Z,26240.00
2018-02-19T11:57:19.937Z,25152.00
2018-02-19T11:58:19.938Z,24768.00
2018-02-19T11:59:19.940Z,25152.00
2018-02-19T12:00:19.937Z,25696.00
2018-02-19T12:01:19.998Z,26144.00
2018-02-19T12:02:19.942Z,25888.00
2018-02-19T12:03:19.950Z,25248.00
2018-02-19T12:04:19.988Z,25344.00
2018-02-19T12:05:19.944Z,25984.00
2018-02-19T12:06:19.946Z,26112.00
2018-02-19T12:07:19.983Z,26080.00
2018-02-19T12:08:19.948Z,25824.00
2018-02-19T12:09:19.948Z,25888.00
2018-02-19T12:10:19.952Z,25984.00
2018-02-19T12:11:19.949Z,25696.00
2018-02-19T12:12:19.996Z,25632.00
2018-02-19T12:13:19.956Z,26432.00
2018-02-19T12:14:19.955Z,26336.00
2018-02-19T12:15:19.951Z,26592.00
2018-02-19T12:16:19.954Z,26944.00
2018-02-19T12:17:20.459Z,27328.00
2018-02-19T12:18:19.954Z,28096.00
2018-02-19T12:19:19.953Z,27168.00
2018-02-19T12:20:19.956Z,26816.00
2018-02-19T12:21:19.959Z,27360.00
2018-02-19T12:22:20.012Z,27040.00
2018-02-19T12:23:19.993Z,26880.00
2018-02-19T12:24:19.959Z,26816.00
2018-02-19T12:25:19.957Z,27008.00
2018-02-19T12:26:19.958Z,27904.00
2018-02-19T12:27:20.003Z,28256.00
2018-02-19T12:28:19.957Z,28032.00
2018-02-19T12:29:19.961Z,27680.00
2018-02-19T12:30:19.961Z,27616.00